Lorane, Pennsylvania
Current Conditions -  °F | °C
As of 6:54 AM on Monday 22 Dec 2014 (Local Time) from KRDG Reporting Station
Haze Haze  
Wind Chill: 22°   Ceiling: 2100
Heat Index: 22°   Visibility: 6mi
Dew Point: 19°   Wind: 0mph
Humidity: 89%   Direction: NA
Pressure: 30.31"   Gusts: NA
Location:  40.3351°N, 75.8521°W
Report Text: KRDG 221154Z AUTO 00000KT 6SM BR OVC021 M06/M07 A3031 RMK AO2 SLP272 I6000 T10561072 11050 21067 55003
Loading
Personal Weather Stations






























Interactive Weather Map New forecast layout! Learn more

10-Day Weather Forecast

Advertisements
Track Severe Weather on mobile